Time;durP1;ratioP1;P1;durP2;ratioP2;P2;SDS_P1;SDS_P2;PMS_P1;PMS_P2;Temp;Humidity;BMP_temperature;BMP_pressure;BME280_temperature;BME280_humidity;BME280_pressure;Samples;Min_cycle;Max_cycle;Signal;HPM_P1;HPM_P2
2021/06/27 00:00:41;;;;;;;8.10;6.33;;;;;;;22.54;67.86;99935.17;1704815;83;21046;-68
2021/06/27 00:03:08;;;;;;;11.45;6.80;;;;;;;22.48;68.11;99919.95;1742378;80;21102;-69
2021/06/27 00:05:35;;;;;;;14.23;7.30;;;;;;;22.47;68.15;99923.66;1741083;81;21038;-67
2021/06/27 00:08:02;;;;;;;11.10;6.90;;;;;;;22.45;68.14;99921.19;1744196;80;21545;-67
2021/06/27 00:10:32;;;;;;;10.93;7.50;;;;;;;22.48;68.20;99924.47;1740561;80;21021;-68
2021/06/27 00:12:59;;;;;;;12.00;7.12;;;;;;;22.51;68.18;99924.05;1739440;81;21054;-68
2021/06/27 00:15:38;;;;;;;9.38;7.17;;;;;;;22.52;68.28;99921.69;1735225;80;21052;-68
2021/06/27 00:18:04;;;;;;;9.60;7.17;;;;;;;22.53;68.35;99913.97;1737525;81;21139;-68
2021/06/27 00:20:32;;;;;;;10.53;6.95;;;;;;;22.50;68.43;99923.24;1738891;80;21511;-68
2021/06/27 00:22:58;;;;;;;10.88;7.25;;;;;;;22.42;68.74;99930.17;1739454;80;21106;-67
2021/06/27 00:25:28;;;;;;;16.12;7.60;;;;;;;22.35;69.03;99938.23;1739947;81;21557;-69
2021/06/27 00:27:56;;;;;;;9.15;7.17;;;;;;;22.31;69.14;99933.50;1743414;80;21047;-70
2021/06/27 00:30:23;;;;;;;11.93;7.75;;;;;;;22.29;69.28;99938.26;1741570;81;21642;-69
2021/06/27 00:32:50;;;;;;;10.58;7.80;;;;;;;22.27;69.25;99941.11;1746323;80;21039;-69
2021/06/27 00:35:17;;;;;;;10.90;6.85;;;;;;;22.21;69.28;99937.95;1719176;80;21680;-67
2021/06/27 00:37:45;;;;;;;9.95;7.62;;;;;;;22.21;69.38;99924.56;1744465;81;21003;-67
2021/06/27 00:40:15;;;;;;;9.30;7.28;;;;;;;22.22;69.34;99926.19;1744416;80;21218;-68
2021/06/27 00:42:42;;;;;;;12.63;7.67;;;;;;;22.26;69.23;99926.90;1745913;80;20987;-68
2021/06/27 00:45:11;;;;;;;8.73;6.40;;;;;;;22.36;68.95;99928.33;1742734;80;21047;-67
2021/06/27 00:47:39;;;;;;;10.95;7.42;;;;;;;22.39;68.76;99938.14;1736752;80;21004;-69
2021/06/27 00:50:08;;;;;;;10.68;7.15;;;;;;;22.39;68.82;99935.45;1741231;80;21030;-68
2021/06/27 00:52:35;;;;;;;15.85;8.13;;;;;;;22.37;68.97;99934.83;1744062;80;21159;-67
2021/06/27 00:55:03;;;;;;;11.65;7.47;;;;;;;22.32;69.16;99934.64;1741908;81;20999;-69
2021/06/27 00:57:29;;;;;;;10.53;7.90;;;;;;;22.26;69.44;99928.24;1716672;81;21046;-71
2021/06/27 00:59:55;;;;;;;10.13;6.80;;;;;;;22.29;69.49;99932.90;1744414;81;21063;-68
2021/06/27 01:02:22;;;;;;;22.27;7.90;;;;;;;22.34;69.47;99941.97;1729849;80;21042;-68
2021/06/27 01:04:48;;;;;;;10.43;7.95;;;;;;;22.37;69.38;99948.23;1728329;82;21105;-67
2021/06/27 01:07:15;;;;;;;9.25;6.90;;;;;;;22.39;69.38;99948.86;1732240;81;21333;-68
2021/06/27 01:09:41;;;;;;;8.90;7.30;;;;;;;22.42;69.18;99942.23;1725951;82;21078;-68
2021/06/27 01:12:09;;;;;;;10.18;7.00;;;;;;;22.42;69.04;99940.37;1736108;81;21059;-68
2021/06/27 01:14:35;;;;;;;13.22;7.58;;;;;;;22.41;68.91;99947.31;1737533;81;21078;-69
2021/06/27 01:17:02;;;;;;;9.48;6.90;;;;;;;22.38;68.93;99941.84;1726031;82;21007;-68
2021/06/27 01:19:32;;;;;;;10.20;7.03;;;;;;;22.37;68.90;99944.20;1738686;81;21059;-68
2021/06/27 01:21:59;;;;;;;15.88;7.60;;;;;;;22.39;68.82;99941.31;1733135;82;21043;-68
2021/06/27 01:24:26;;;;;;;9.75;7.47;;;;;;;22.38;68.98;99939.16;1735903;81;21490;-68
2021/06/27 01:26:53;;;;;;;9.68;7.67;;;;;;;22.37;69.13;99938.84;1725358;81;21095;-69
2021/06/27 01:29:20;;;;;;;10.82;7.75;;;;;;;22.33;69.18;99943.52;1729050;81;21146;-68
2021/06/27 01:31:46;;;;;;;13.70;7.58;;;;;;;22.30;69.16;99946.62;1688088;82;21565;-68
2021/06/27 01:34:13;;;;;;;11.88;7.97;;;;;;;22.25;69.20;99945.34;1701539;81;21142;-69
2021/06/27 01:36:40;;;;;;;9.95;7.65;;;;;;;22.22;69.36;99943.60;1733921;82;22276;-67
2021/06/27 01:39:06;;;;;;;10.80;7.10;;;;;;;22.20;69.63;99939.80;1739441;81;21063;-67
2021/06/27 01:41:33;;;;;;;12.63;8.43;;;;;;;22.18;69.92;99947.22;1717468;81;21913;-69
2021/06/27 01:43:59;;;;;;;10.58;7.62;;;;;;;22.19;69.95;99948.03;1682973;83;21058;-68
2021/06/27 01:46:25;;;;;;;12.13;8.40;;;;;;;22.18;69.93;99936.51;1719004;81;21450;-69
2021/06/27 01:48:52;;;;;;;12.33;8.78;;;;;;;22.16;69.99;99941.26;1737933;81;21079;-68
2021/06/27 01:51:20;;;;;;;10.48;7.65;;;;;;;22.12;70.23;99935.18;1735463;81;21079;-69
2021/06/27 01:53:47;;;;;;;12.60;7.42;;;;;;;22.10;70.20;99933.23;1718418;81;21074;-69
2021/06/27 01:56:13;;;;;;;13.53;8.50;;;;;;;22.02;70.15;99932.43;1719323;82;21135;-70
2021/06/27 01:58:51;;;;;;;10.25;8.38;;;;;;;21.95;70.29;99946.86;1733847;82;21057;-68
2021/06/27 02:01:26;;;;;;;10.78;8.30;;;;;;;21.96;70.34;99945.84;1731288;80;21501;-68
2021/06/27 02:03:53;;;;;;;13.83;8.43;;;;;;;21.96;70.29;99941.30;1736026;80;21635;-68
2021/06/27 02:06:22;;;;;;;12.35;8.38;;;;;;;21.94;70.35;99950.06;1658572;85;22481;-69
2021/06/27 02:08:51;;;;;;;12.37;7.55;;;;;;;21.91;70.54;99957.16;1732937;80;21043;-68
2021/06/27 02:11:19;;;;;;;9.90;8.10;;;;;;;21.89;70.54;99951.20;1696039;83;21022;-68
2021/06/27 02:13:46;;;;;;;13.40;8.90;;;;;;;21.81;70.68;99954.91;1732599;81;21076;-68
2021/06/27 02:16:13;;;;;;;12.05;8.98;;;;;;;21.72;70.94;99965.53;1715088;81;21085;-70
2021/06/27 02:18:42;;;;;;;11.48;8.63;;;;;;;21.65;71.18;99973.56;1732844;82;21154;-67
2021/06/27 02:21:28;;;;;;;9.60;8.05;;;;;;;21.60;71.13;99974.69;1746660;80;21088;-68
2021/06/27 02:23:55;;;;;;;13.53;7.72;;;;;;;21.55;71.16;99976.31;1741951;81;21545;-68
2021/06/27 02:26:21;;;;;;;12.18;8.18;;;;;;;21.48;71.13;99983.00;1734983;80;21031;-69
2021/06/27 02:28:49;;;;;;;12.20;8.60;;;;;;;21.44;71.19;99984.42;1742776;80;21509;-67
2021/06/27 02:31:15;;;;;;;9.15;8.03;;;;;;;21.36;71.40;99983.27;1742190;80;23168;-68
2021/06/27 02:33:42;;;;;;;16.73;9.03;;;;;;;21.31;71.58;99983.88;1743863;80;21562;-68
2021/06/27 02:36:09;;;;;;;12.47;8.73;;;;;;;21.30;71.69;99982.21;1742924;81;21103;-68
2021/06/27 02:38:36;;;;;;;10.65;8.73;;;;;;;21.30;71.80;99985.73;1718971;82;21624;-67
2021/06/27 02:41:04;;;;;;;10.32;8.80;;;;;;;21.30;71.81;99986.22;1715769;81;21065;-68
2021/06/27 02:43:30;;;;;;;13.80;8.48;;;;;;;21.30;71.93;99992.42;1742099;80;21136;-71
2021/06/27 02:45:56;;;;;;;10.78;8.25;;;;;;;21.32;72.09;100001.59;1744391;81;21059;-67
2021/06/27 02:48:23;;;;;;;11.12;9.20;;;;;;;21.33;72.21;100008.08;1739120;80;21498;-67
2021/06/27 02:50:49;;;;;;;13.15;8.60;;;;;;;21.35;72.24;100011.89;1740822;81;21083;-68
2021/06/27 02:53:15;;;;;;;12.45;8.70;;;;;;;21.36;72.26;100016.72;1745391;80;21043;-67
2021/06/27 02:55:42;;;;;;;13.70;8.53;;;;;;;21.37;72.26;100003.14;1739271;80;21840;-68
2021/06/27 02:58:08;;;;;;;15.20;8.63;;;;;;;21.44;72.16;99997.80;1746008;80;21078;-68
2021/06/27 03:00:35;;;;;;;14.55;8.90;;;;;;;21.47;72.05;100001.45;1734463;80;22635;-69
2021/06/27 03:03:01;;;;;;;9.98;7.97;;;;;;;21.48;72.02;100002.55;1730891;82;22295;-68
2021/06/27 03:05:28;;;;;;;12.23;9.45;;;;;;;21.50;72.10;100005.03;1730845;81;21130;-68
2021/06/27 03:07:55;;;;;;;13.78;9.50;;;;;;;21.54;72.20;100012.98;1731195;81;21816;-68
2021/06/27 03:10:21;;;;;;;11.60;9.40;;;;;;;21.54;72.33;100016.99;1733129;81;21059;-68
2021/06/27 03:12:49;;;;;;;13.15;8.83;;;;;;;21.57;72.48;100015.25;1705738;82;21055;-67
2021/06/27 03:26:52;;;;;;;13.58;10.10;;;;;;;23.29;67.65;100003.58;1871885;74;22623;-65
2021/06/27 03:29:19;;;;;;;12.37;9.53;;;;;;;23.36;66.79;100001.66;1843110;77;20998;-64
2021/06/27 03:31:46;;;;;;;12.50;9.63;;;;;;;23.25;66.88;100001.84;1850017;76;21129;-64
2021/06/27 03:34:12;;;;;;;12.47;9.63;;;;;;;23.13;67.10;99997.68;1846022;75;21011;-65
2021/06/27 03:36:39;;;;;;;11.12;9.35;;;;;;;23.07;67.21;100002.55;1833477;77;21545;-64
2021/06/27 03:39:08;;;;;;;14.87;10.08;;;;;;;23.04;67.25;99990.87;1851859;77;20943;-66
2021/06/27 03:41:42;;;;;;;12.95;10.35;;;;;;;22.99;67.22;99986.67;1838610;76;21579;-64
2021/06/27 03:44:04;;;;;;;12.75;10.60;;;;;;;22.90;67.50;99987.97;1849605;77;21966;-62
2021/06/27 03:46:31;;;;;;;12.50;9.80;;;;;;;22.80;67.82;99987.08;1852589;76;21497;-64
2021/06/27 03:48:58;;;;;;;14.70;9.88;;;;;;;22.76;68.12;99976.45;1826325;77;20994;-65
2021/06/27 03:51:25;;;;;;;15.35;9.68;;;;;;;22.79;68.21;99980.05;1853065;77;21064;-64
2021/06/27 03:53:52;;;;;;;11.63;9.33;;;;;;;22.79;68.53;99976.03;1820687;77;21120;-64
2021/06/27 03:56:19;;;;;;;14.70;9.75;;;;;;;22.81;68.60;99986.02;1823891;77;21052;-64
2021/06/27 03:58:47;;;;;;;12.15;9.88;;;;;;;22.84;68.86;99984.78;1842907;77;21002;-62
2021/06/27 04:01:14;;;;;;;12.68;9.83;;;;;;;22.84;69.00;99988.28;1844052;76;21551;-64
2021/06/27 04:03:40;;;;;;;14.03;9.80;;;;;;;22.86;69.05;99985.39;1810857;77;21037;-60
2021/06/27 04:06:07;;;;;;;11.35;9.65;;;;;;;22.92;69.00;99976.50;1840449;77;21009;-60
2021/06/27 04:08:33;;;;;;;12.25;8.88;;;;;;;23.05;68.99;99976.92;1838520;76;22605;-62
2021/06/27 04:11:01;;;;;;;15.53;10.13;;;;;;;23.14;68.45;99979.18;1835141;77;21030;-59
2021/06/27 04:13:29;;;;;;;12.13;9.55;;;;;;;23.26;68.39;99979.84;1840789;76;21030;-61
2021/06/27 04:15:59;;;;;;;13.62;9.80;;;;;;;23.32;67.24;99970.41;1788255;79;21027;-61
2021/06/27 04:18:26;;;;;;;12.37;9.65;;;;;;;23.33;67.20;99962.67;1778947;80;21041;-62
2021/06/27 04:20:53;;;;;;;13.03;9.68;;;;;;;23.32;67.36;99964.22;1779651;79;21072;-62
2021/06/27 04:23:19;;;;;;;14.87;10.18;;;;;;;23.30;67.30;99966.28;1792918;79;21054;-62
2021/06/27 04:25:46;;;;;;;11.95;9.43;;;;;;;23.33;67.16;99969.38;1787923;78;21071;-63
2021/06/27 04:28:13;;;;;;;13.38;9.28;;;;;;;23.39;67.36;99962.31;1790378;78;21117;-62
2021/06/27 04:30:40;;;;;;;13.48;9.98;;;;;;;23.41;67.41;99965.59;1801184;78;21473;-62
2021/06/27 04:33:09;;;;;;;14.00;10.20;;;;;;;23.44;67.17;99974.55;1810568;78;21615;-62
2021/06/27 04:35:37;;;;;;;12.30;10.88;;;;;;;23.42;66.96;99973.96;1786522;78;21037;-62
2021/06/27 04:38:04;;;;;;;16.12;14.50;;;;;;;23.41;67.15;99974.98;1802116;77;21145;-62
2021/06/27 04:40:32;;;;;;;15.98;9.98;;;;;;;23.41;67.26;99984.38;1780730;78;21564;-62
2021/06/27 04:42:58;;;;;;;12.98;10.63;;;;;;;23.44;67.16;99983.14;1780288;78;22542;-60
2021/06/27 04:45:26;;;;;;;13.98;10.05;;;;;;;23.51;66.72;99985.25;1787686;79;21111;-61
2021/06/27 04:47:53;;;;;;;12.40;10.15;;;;;;;23.54;66.65;99981.61;1772864;80;21586;-62
2021/06/27 04:50:19;;;;;;;12.82;10.68;;;;;;;23.54;66.69;99987.50;1792145;77;21060;-61
2021/06/27 04:52:51;;;;;;;16.82;11.10;;;;;;;23.49;66.79;99989.49;1795598;79;21067;-62
2021/06/27 04:55:14;;;;;;;11.90;9.78;;;;;;;23.48;67.01;99989.18;1794646;79;21273;-60
2021/06/27 04:57:40;;;;;;;12.37;10.05;;;;;;;23.51;67.20;99995.99;1798338;78;21105;-61
2021/06/27 05:00:08;;;;;;;13.28;9.65;;;;;;;23.52;67.30;99997.12;1799530;78;21093;-62
2021/06/27 05:02:35;;;;;;;14.28;9.00;;;;;;;23.54;67.42;100001.75;1756759;79;21069;-62
2021/06/27 05:05:03;;;;;;;14.15;9.68;;;;;;;23.61;67.72;100021.03;1783539;78;21084;-62
2021/06/27 05:07:29;;;;;;;13.93;10.10;;;;;;;23.68;67.58;100028.52;1791398;78;21002;-62
2021/06/27 05:09:57;;;;;;;12.03;8.90;;;;;;;23.71;67.10;100034.27;1759458;80;21058;-61
2021/06/27 05:12:25;;;;;;;12.37;8.88;;;;;;;23.73;66.52;100028.67;1769759;80;21089;-62
2021/06/27 05:14:52;;;;;;;10.75;8.48;;;;;;;23.75;66.17;100029.27;1777286;78;21620;-62
2021/06/27 05:17:19;;;;;;;10.75;8.33;;;;;;;23.82;65.76;100042.69;1744540;80;21070;-62
2021/06/27 05:19:47;;;;;;;13.22;9.80;;;;;;;23.86;65.44;100044.73;1777299;78;21107;-60
2021/06/27 05:22:14;;;;;;;10.53;9.05;;;;;;;23.89;65.26;100040.80;1773601;78;21057;-61
2021/06/27 05:24:40;;;;;;;11.83;9.23;;;;;;;23.89;65.24;100045.64;1782406;79;21045;-61
2021/06/27 05:27:07;;;;;;;14.93;11.08;;;;;;;23.89;65.05;100042.95;1816302;78;22521;-60
2021/06/27 05:29:34;;;;;;;12.13;9.48;;;;;;;23.88;65.10;100053.39;1813674;78;21057;-61
2021/06/27 05:32:02;;;;;;;13.88;9.35;;;;;;;23.87;64.92;100060.31;1762573;80;21056;-61
2021/06/27 05:34:30;;;;;;;9.83;8.53;;;;;;;23.88;64.55;100062.79;1787773;78;21074;-59
2021/06/27 05:36:57;;;;;;;10.38;8.23;;;;;;;23.91;64.31;100050.80;1749972;80;21120;-60
2021/06/27 05:39:24;;;;;;;11.10;8.45;;;;;;;23.88;63.95;100052.05;1781310;78;20973;-60
2021/06/27 05:41:50;;;;;;;9.30;7.70;;;;;;;23.84;64.05;100049.50;1780386;79;20975;-59
2021/06/27 05:44:21;;;;;;;12.95;7.80;;;;;;;23.85;64.02;100049.78;1792410;78;21559;-60
2021/06/27 05:46:48;;;;;;;10.98;7.42;;;;;;;23.86;64.12;100046.07;1790776;78;22623;-61
2021/06/27 05:49:14;;;;;;;10.82;6.03;;;;;;;23.89;63.81;100050.20;1781605;78;21026;-62
2021/06/27 05:51:41;;;;;;;8.33;6.25;;;;;;;23.93;62.97;100054.89;1810762;77;21354;-61
2021/06/27 05:54:08;;;;;;;12.65;7.50;;;;;;;24.03;62.43;100055.75;1803802;78;21081;-61
2021/06/27 05:56:36;;;;;;;19.00;6.55;;;;;;;24.10;62.11;100051.66;1789607;80;21045;-62
2021/06/27 05:59:04;;;;;;;11.15;7.20;;;;;;;24.17;62.26;100051.08;1749621;80;21121;-60
2021/06/27 06:01:30;;;;;;;10.70;7.65;;;;;;;24.27;62.09;100046.02;1779738;78;21042;-60
2021/06/27 06:03:57;;;;;;;9.30;7.15;;;;;;;24.34;61.55;100044.61;1819692;77;21029;-59
2021/06/27 06:06:23;;;;;;;8.45;6.72;;;;;;;24.38;61.29;100039.64;1761611;80;21072;-57
2021/06/27 06:08:52;;;;;;;8.85;6.47;;;;;;;24.43;60.99;100030.37;1777055;79;21043;-59
2021/06/27 06:11:18;;;;;;;9.05;6.40;;;;;;;24.46;60.74;100028.06;1773307;79;21105;-59
2021/06/27 06:13:45;;;;;;;9.03;6.42;;;;;;;24.50;60.80;100032.47;1773248;79;21109;-60
2021/06/27 06:16:12;;;;;;;10.15;6.72;;;;;;;24.58;60.29;100030.86;1795270;79;21105;-61
2021/06/27 06:18:41;;;;;;;12.13;6.30;;;;;;;24.65;60.03;100026.22;1787816;78;21615;-62
2021/06/27 06:21:11;;;;;;;9.85;6.40;;;;;;;24.70;59.64;100027.44;1785622;78;21075;-59
2021/06/27 06:23:38;;;;;;;10.10;6.12;;;;;;;24.73;59.20;100025.61;1785805;78;21106;-58
2021/06/27 06:26:05;;;;;;;7.42;5.90;;;;;;;24.72;58.81;100023.98;1798763;78;21052;-57
2021/06/27 06:28:33;;;;;;;6.70;4.97;;;;;;;24.75;58.41;100028.92;1810081;78;21081;-59
2021/06/27 06:31:00;;;;;;;8.10;4.90;;;;;;;24.76;58.79;100027.33;1788729;78;21065;-59
2021/06/27 06:33:26;;;;;;;6.70;4.72;;;;;;;24.83;59.13;100033.47;1785176;78;21049;-60
2021/06/27 06:35:53;;;;;;;7.87;4.90;;;;;;;24.90;58.80;100019.94;1814555;78;21127;-59
2021/06/27 06:38:19;;;;;;;7.78;4.15;;;;;;;25.00;58.41;100021.56;1785726;78;20990;-60
2021/06/27 06:40:46;;;;;;;11.60;4.90;;;;;;;25.12;58.52;100028.34;1768918;78;21071;-59
2021/06/27 06:43:13;;;;;;;7.62;4.40;;;;;;;25.22;57.52;100014.34;1803854;78;21058;-58
2021/06/27 06:45:39;;;;;;;7.25;4.85;;;;;;;25.29;57.45;100015.62;1774715;78;21509;-60
2021/06/27 06:48:07;;;;;;;5.80;3.80;;;;;;;25.28;56.90;100007.24;1789354;78;21154;-60
2021/06/27 06:50:34;;;;;;;6.70;4.85;;;;;;;25.28;56.80;100007.24;1781833;80;21051;-59
2021/06/27 06:53:00;;;;;;;9.80;5.50;;;;;;;25.30;56.96;100001.10;1806860;78;21465;-59
2021/06/27 06:55:28;;;;;;;8.58;5.47;;;;;;;25.30;56.86;100002.45;1781480;78;21109;-58
2021/06/27 06:57:54;;;;;;;7.65;4.95;;;;;;;25.31;56.64;100000.88;1809498;78;21081;-59
2021/06/27 07:00:21;;;;;;;6.20;4.30;;;;;;;25.30;56.37;100001.10;1788015;79;21173;-59
2021/06/27 07:02:47;;;;;;;8.18;4.50;;;;;;;25.31;56.50;99987.41;1783843;78;21136;-60
2021/06/27 07:05:14;;;;;;;6.60;4.25;;;;;;;25.33;55.96;99988.53;1810316;77;21078;-57
2021/06/27 07:07:42;;;;;;;6.87;4.85;;;;;;;25.32;55.52;99982.33;1822559;77;20963;-59
2021/06/27 07:10:10;;;;;;;8.20;5.50;;;;;;;25.32;55.54;99983.67;1773539;78;21543;-58
2021/06/27 07:12:37;;;;;;;8.60;4.80;;;;;;;25.32;56.07;99986.37;1791675;78;21089;-59
2021/06/27 07:15:06;;;;;;;9.13;4.87;;;;;;;25.31;55.85;99976.64;1814226;78;21033;-59
2021/06/27 07:17:32;;;;;;;8.60;5.12;;;;;;;25.33;55.89;99970.48;1782617;78;21093;-59
2021/06/27 07:19:59;;;;;;;7.40;5.05;;;;;;;25.31;55.40;99963.17;1806258;78;21096;-59
2021/06/27 07:22:26;;;;;;;7.42;5.05;;;;;;;25.27;55.27;99954.43;1795927;78;21525;-60
2021/06/27 07:24:52;;;;;;;8.35;5.33;;;;;;;25.22;55.26;99956.45;1810238;78;21095;-58
2021/06/27 07:27:18;;;;;;;9.30;5.65;;;;;;;25.18;55.69;99955.27;1783280;78;21505;-59
2021/06/27 07:29:45;;;;;;;7.40;4.37;;;;;;;25.17;55.90;99953.64;1770279;79;21152;-61
2021/06/27 07:32:12;;;;;;;8.48;4.60;;;;;;;25.21;56.32;99945.38;1755170;79;21117;-60
2021/06/27 07:34:39;;;;;;;7.05;5.03;;;;;;;25.22;56.50;99941.66;1782508;79;21438;-59
2021/06/27 07:37:05;;;;;;;8.25;5.05;;;;;;;25.20;56.69;99932.95;1776754;79;21081;-59
2021/06/27 07:39:33;;;;;;;8.88;5.40;;;;;;;25.18;56.48;99926.99;1743614;78;21677;-59
2021/06/27 07:42:00;;;;;;;7.97;4.95;;;;;;;25.18;57.03;99918.92;1740523;80;21087;-59
2021/06/27 07:44:27;;;;;;;9.23;4.80;;;;;;;25.19;57.27;99908.45;1767545;78;21109;-61
2021/06/27 07:46:53;;;;;;;9.25;5.05;;;;;;;25.18;57.63;99909.49;1804223;77;21030;-59
2021/06/27 07:49:20;;;;;;;10.25;4.35;;;;;;;25.19;57.28;99908.45;1799073;78;21105;-60
2021/06/27 07:51:46;;;;;;;8.20;4.62;;;;;;;25.20;57.25;99903.34;1783440;78;21087;-58
2021/06/27 07:54:13;;;;;;;8.10;4.28;;;;;;;25.25;57.18;99897.27;1778427;79;21074;-60
2021/06/27 07:56:39;;;;;;;7.87;4.47;;;;;;;25.36;56.98;99887.90;1774283;79;21065;-58
2021/06/27 07:59:08;;;;;;;9.23;4.62;;;;;;;25.46;56.70;99883.83;1778522;79;21671;-61
2021/06/27 08:01:35;;;;;;;8.55;4.97;;;;;;;25.47;56.47;99882.25;1776628;80;21092;-59
2021/06/27 08:04:01;;;;;;;9.30;4.00;;;;;;;25.49;56.57;99879.33;1778369;78;21038;-61
2021/06/27 08:06:28;;;;;;;6.75;4.12;;;;;;;25.55;56.57;99878.37;1809738;78;21409;-59
2021/06/27 08:08:54;;;;;;;7.12;3.98;;;;;;;25.56;56.23;99881.37;1787976;79;21057;-59
2021/06/27 08:11:22;;;;;;;7.20;4.10;;;;;;;25.59;55.46;99884.94;1781481;78;21038;-58
2021/06/27 08:13:48;;;;;;;7.42;4.22;;;;;;;25.62;55.53;99891.72;1783659;78;21046;-59
2021/06/27 08:16:15;;;;;;;5.50;3.12;;;;;;;25.66;54.90;99883.48;1790527;78;21085;-58
2021/06/27 08:18:42;;;;;;;8.43;3.85;;;;;;;25.70;54.07;99889.48;1771635;80;21129;-60
2021/06/27 08:21:09;;;;;;;6.22;4.10;;;;;;;25.75;53.93;99895.53;1777089;79;21042;-60
2021/06/27 08:23:36;;;;;;;5.45;3.10;;;;;;;25.78;54.29;99894.53;1785328;80;21011;-60
2021/06/27 08:26:04;;;;;;;5.40;3.15;;;;;;;25.85;54.17;99892.25;1776994;79;21830;-58
2021/06/27 08:28:31;;;;;;;9.43;3.33;;;;;;;25.94;54.28;99895.70;1805093;78;21601;-62
2021/06/27 08:30:57;;;;;;;8.05;3.37;;;;;;;26.06;53.44;99890.33;1773932;78;21023;-60
2021/06/27 08:33:24;;;;;;;6.45;3.42;;;;;;;26.17;53.64;99889.19;1787271;80;21184;-61
2021/06/27 08:35:50;;;;;;;4.92;2.95;;;;;;;26.29;53.52;99886.77;1785848;78;21110;-59
2021/06/27 08:38:17;;;;;;;5.12;3.25;;;;;;;26.39;52.25;99882.08;1803270;78;21134;-60
2021/06/27 08:40:44;;;;;;;4.92;3.08;;;;;;;26.45;52.78;99875.73;1819882;78;21124;-60
2021/06/27 08:43:11;;;;;;;5.53;3.12;;;;;;;26.53;52.23;99872.36;1792586;80;21509;-61
2021/06/27 08:45:53;;;;;;;5.67;3.40;;;;;;;26.59;52.25;99865.47;1774356;80;21033;-60
2021/06/27 08:48:22;;;;;;;8.85;3.50;;;;;;;26.70;52.62;99865.17;1739473;80;21432;-61
2021/06/27 08:50:49;;;;;;;5.70;3.67;;;;;;;26.84;52.34;99863.80;1793932;79;21573;-59
2021/06/27 08:53:17;;;;;;;5.85;3.52;;;;;;;26.97;52.14;99865.92;1782129;79;21109;-60
2021/06/27 08:55:44;;;;;;;7.05;3.87;;;;;;;27.09;50.81;99865.30;1795398;78;21075;-58
2021/06/27 08:58:11;;;;;;;6.28;4.03;;;;;;;27.19;49.55;99873.57;1786228;78;21559;-59
2021/06/27 09:00:38;;;;;;;5.83;4.05;;;;;;;27.25;49.05;99862.30;1766265;79;21093;-60
2021/06/27 09:03:10;;;;;;;6.33;3.77;;;;;;;27.31;48.98;99870.81;1795636;79;21777;-60
2021/06/27 09:05:38;;;;;;;6.97;4.28;;;;;;;27.39;50.75;99877.70;1786404;79;21523;-60
2021/06/27 09:08:18;;;;;;;5.53;3.45;;;;;;;27.47;52.45;99871.89;1769265;79;21497;-60
2021/06/27 09:10:45;;;;;;;8.55;3.90;;;;;;;27.50;53.00;99875.42;1786225;79;21101;-60
2021/06/27 09:13:12;;;;;;;6.97;4.33;;;;;;;27.53;53.07;99878.17;1780032;78;21061;-60
2021/06/27 09:15:49;;;;;;;10.60;4.62;;;;;;;27.56;53.18;99879.03;1790634;79;21061;-60
2021/06/27 09:18:22;;;;;;;8.30;4.53;;;;;;;27.63;53.16;99884.27;1792815;79;21061;-60
2021/06/27 09:20:52;;;;;;;8.43;4.90;;;;;;;27.72;51.71;99886.82;1784849;79;21091;-59
2021/06/27 09:23:42;;;;;;;12.82;4.80;;;;;;;27.81;52.24;99885.34;1793029;79;21120;-58
2021/06/27 09:26:08;;;;;;;7.22;4.47;;;;;;;27.91;51.38;99886.02;1792662;78;21072;-59
2021/06/27 09:28:49;;;;;;;7.25;4.28;;;;;;;27.99;50.50;99884.24;1732603;81;21272;-59
2021/06/27 09:31:40;;;;;;;9.40;5.25;;;;;;;28.04;50.40;99888.39;1730610;81;21096;-60
2021/06/27 09:34:09;;;;;;;7.40;4.65;;;;;;;28.04;50.70;99892.45;1746317;80;21579;-59
2021/06/27 09:36:44;;;;;;;7.62;5.00;;;;;;;28.06;50.46;99900.28;1745668;80;21079;-59
2021/06/27 09:39:15;;;;;;;6.92;4.33;;;;;;;28.11;50.61;99895.78;1758149;80;20989;-59
2021/06/27 09:41:50;;;;;;;6.72;4.17;;;;;;;28.17;49.92;99892.59;1747545;80;21836;-60
2021/06/27 09:44:17;;;;;;;7.40;5.37;;;;;;;28.24;49.13;99897.27;1782220;78;21062;-59
2021/06/27 09:46:51;;;;;;;7.65;4.40;;;;;;;28.27;49.21;99894.61;1748241;80;21061;-61
2021/06/27 09:49:31;;;;;;;6.87;4.87;;;;;;;28.30;48.08;99903.04;1751845;81;21092;-59
2021/06/27 09:52:07;;;;;;;9.45;5.83;;;;;;;28.34;49.24;99897.42;1747831;81;21112;-59
2021/06/27 09:54:35;;;;;;;8.63;5.15;;;;;;;28.41;50.11;99902.64;1731821;81;21199;-61
2021/06/27 09:57:04;;;;;;;6.60;4.92;;;;;;;28.48;50.37;99899.20;1753717;80;21563;-58
2021/06/27 09:59:38;;;;;;;6.95;5.33;;;;;;;28.60;49.17;99896.38;1730246;81;21108;-59
2021/06/27 10:02:06;;;;;;;8.23;5.53;;;;;;;28.67;49.65;99897.54;1756040;79;21022;-59
2021/06/27 10:04:34;;;;;;;9.98;5.83;;;;;;;28.70;49.78;99905.97;1757110;80;21049;-58
2021/06/27 10:07:03;;;;;;;8.08;5.62;;;;;;;28.77;49.69;99896.83;1755059;79;22265;-59
2021/06/27 10:09:38;;;;;;;7.20;5.62;;;;;;;28.80;49.24;99902.55;1751496;80;21041;-60
2021/06/27 10:12:19;;;;;;;8.27;5.13;;;;;;;28.85;49.03;99905.82;1724171;81;21108;-60
2021/06/27 10:14:58;;;;;;;7.92;4.60;;;;;;;28.93;46.97;99908.06;1731732;81;21914;-59
2021/06/27 10:17:27;;;;;;;7.17;4.85;;;;;;;28.95;45.60;99906.47;1758654;81;21011;-59
2021/06/27 10:19:56;;;;;;;7.15;5.15;;;;;;;28.98;45.95;99907.31;1750141;79;21070;-59
2021/06/27 10:22:26;;;;;;;7.90;4.95;;;;;;;29.05;45.42;99902.49;1755740;81;21529;-60
2021/06/27 10:24:54;;;;;;;7.17;5.47;;;;;;;29.15;46.30;99908.55;1755849;79;21049;-61
2021/06/27 10:27:21;;;;;;;7.55;5.55;;;;;;;29.15;46.93;99907.19;1761785;80;21341;-59
2021/06/27 10:29:48;;;;;;;8.05;5.55;;;;;;;29.09;47.19;99900.38;1732202;81;21077;-61
2021/06/27 10:32:17;;;;;;;7.17;5.87;;;;;;;29.03;47.42;99912.77;1756410;79;21194;-61
2021/06/27 10:34:44;;;;;;;7.10;5.85;;;;;;;28.94;47.93;99902.14;1762216;80;21130;-59
2021/06/27 10:37:19;;;;;;;7.30;5.67;;;;;;;28.95;48.05;99908.66;1726931;80;21195;-60
2021/06/27 10:40:11;;;;;;;7.72;6.05;;;;;;;28.98;47.86;99912.72;1784860;78;21753;-58
2021/06/27 10:42:56;;;;;;;6.60;5.40;;;;;;;28.96;48.03;99915.69;1756159;80;21022;-60
2021/06/27 10:45:30;;;;;;;8.57;6.00;;;;;;;28.89;47.94;99917.80;1754725;81;21122;-60
2021/06/27 10:48:01;;;;;;;8.38;5.97;;;;;;;28.83;48.41;99914.73;1766196;79;21489;-59
2021/06/27 10:50:53;;;;;;;7.25;5.62;;;;;;;28.71;48.05;99919.80;1761707;81;21018;-60
2021/06/27 10:53:21;;;;;;;8.13;6.33;;;;;;;28.61;48.30;99921.00;1760198;79;21064;-58
2021/06/27 10:55:47;;;;;;;8.25;5.33;;;;;;;28.56;48.63;99919.59;1740860;81;21046;-59
2021/06/27 10:58:16;;;;;;;6.78;5.30;;;;;;;28.53;48.69;99920.09;1774913;79;21178;-59
2021/06/27 11:00:57;;;;;;;7.67;5.95;;;;;;;28.48;48.78;99924.91;1761619;79;21052;-59
2021/06/27 11:03:32;;;;;;;7.72;5.53;;;;;;;28.41;48.25;99921.59;1769555;79;21114;-59
2021/06/27 11:06:14;;;;;;;8.88;6.17;;;;;;;28.34;48.53;99925.83;1780123;79;21552;-60
2021/06/27 11:08:42;;;;;;;10.75;5.45;;;;;;;28.31;48.12;99928.20;1767439;79;21065;-59
2021/06/27 11:11:17;;;;;;;8.55;6.42;;;;;;;28.28;48.57;99932.23;1772947;79;21050;-60
2021/06/27 11:14:06;;;;;;;7.42;5.72;;;;;;;28.30;48.66;99935.50;1757910;81;21010;-60
2021/06/27 11:16:37;;;;;;;8.45;5.78;;;;;;;28.32;48.52;99930.66;1760752;79;21103;-60
2021/06/27 11:19:03;;;;;;;10.15;5.65;;;;;;;28.32;49.06;99931.20;1742063;81;21105;-60
2021/06/27 11:21:35;;;;;;;10.18;6.17;;;;;;;28.31;49.40;99930.91;1723797;81;21077;-61
2021/06/27 11:24:04;;;;;;;7.95;6.65;;;;;;;28.29;49.74;99939.27;1739854;80;21073;-61
2021/06/27 11:26:43;;;;;;;7.90;6.10;;;;;;;28.19;50.47;99935.08;1769363;79;21129;-61
2021/06/27 11:29:31;;;;;;;9.18;5.78;;;;;;;28.06;51.79;99943.55;1744833;79;21037;-59
2021/06/27 11:32:15;;;;;;;12.45;7.22;;;;;;;27.83;53.79;99945.38;1776796;79;21520;-65
2021/06/27 11:34:53;;;;;;;11.95;5.85;;;;;;;27.65;56.03;99952.40;1783072;79;21081;-58
2021/06/27 11:37:26;;;;;;;11.12;6.92;;;;;;;27.51;56.63;99951.38;1776650;78;21043;-60
2021/06/27 11:39:56;;;;;;;10.15;6.80;;;;;;;27.36;58.25;99950.59;1773468;78;21336;-60
2021/06/27 11:42:30;;;;;;;14.10;7.10;;;;;;;27.18;58.01;99948.89;1783279;78;22221;-61
2021/06/27 11:45:16;;;;;;;9.90;6.62;;;;;;;27.11;58.69;99944.72;1783174;78;21016;-61